createdAt,value
2018-06-24T00:00:33.468Z,9.47
2018-06-24T00:03:03.368Z,10.23
2018-06-24T00:05:33.195Z,9.20
2018-06-24T00:08:02.917Z,9.20
2018-06-24T00:10:32.676Z,9.03
2018-06-24T00:13:02.336Z,9.43
2018-06-24T00:15:31.986Z,9.30
2018-06-24T00:18:01.661Z,10.17
2018-06-24T00:20:31.337Z,11.90
2018-06-24T00:23:01.053Z,12.67
2018-06-24T00:25:30.759Z,13.90
2018-06-24T00:28:00.493Z,13.13
2018-06-24T00:30:30.254Z,12.03
2018-06-24T00:32:59.921Z,12.00
2018-06-24T00:35:29.645Z,11.10
2018-06-24T00:37:59.299Z,9.03
2018-06-24T00:40:28.983Z,8.80
2018-06-24T00:42:58.703Z,8.93
2018-06-24T00:45:28.578Z,8.47
2018-06-24T00:50:32.721Z,8.43
2018-06-24T00:53:02.380Z,8.50
2018-06-24T00:55:31.712Z,8.40
2018-06-24T00:58:01.401Z,8.00
2018-06-24T01:00:31.076Z,8.23
2018-06-24T01:03:00.733Z,8.60
2018-06-24T01:05:30.157Z,9.07
2018-06-24T01:07:59.886Z,7.60
2018-06-24T01:10:29.557Z,8.13
2018-06-24T01:12:59.257Z,7.50
2018-06-24T01:15:28.942Z,7.53
2018-06-24T01:17:58.671Z,8.60
2018-06-24T01:20:28.533Z,8.43
2018-06-24T01:22:58.190Z,8.07
2018-06-24T01:25:27.816Z,9.37
2018-06-24T01:27:57.533Z,9.33
2018-06-24T01:30:27.178Z,9.30
2018-06-24T01:32:56.832Z,8.10
2018-06-24T01:35:26.594Z,8.60
2018-06-24T01:37:56.273Z,8.87
2018-06-24T01:40:25.922Z,8.70
2018-06-24T01:42:55.561Z,8.87
2018-06-24T01:45:25.238Z,8.40
2018-06-24T01:47:54.547Z,9.13
2018-06-24T01:50:23.955Z,9.73
2018-06-24T01:52:53.585Z,9.90
2018-06-24T01:55:23.265Z,9.73
2018-06-24T01:57:53.011Z,9.77
2018-06-24T02:00:22.686Z,10.20
2018-06-24T02:02:52.084Z,10.53
2018-06-24T02:05:21.777Z,10.37
2018-06-24T02:07:51.454Z,10.57
2018-06-24T02:10:21.401Z,11.60
2018-06-24T02:12:51.074Z,12.37
2018-06-24T02:15:20.713Z,12.97
2018-06-24T02:17:50.341Z,11.30
2018-06-24T02:20:19.985Z,11.40
2018-06-24T02:22:49.634Z,11.47
2018-06-24T02:25:19.406Z,11.07
2018-06-24T02:27:49.127Z,11.93
2018-06-24T02:30:18.819Z,13.10
2018-06-24T02:32:48.492Z,12.30
2018-06-24T02:35:18.161Z,12.10
2018-06-24T02:37:47.816Z,12.70
2018-06-24T02:40:17.461Z,12.67
2018-06-24T02:42:47.208Z,12.40
2018-06-24T02:45:16.838Z,11.93
2018-06-24T02:47:46.178Z,11.80
2018-06-24T02:50:15.826Z,12.40
2018-06-24T02:52:45.453Z,14.10
2018-06-24T02:55:14.780Z,13.30
2018-06-24T02:57:44.454Z,17.60
2018-06-24T03:00:15.162Z,14.13
2018-06-24T03:02:45.057Z,14.10
2018-06-24T03:05:14.689Z,12.30
2018-06-24T03:07:44.385Z,13.70
2018-06-24T03:10:14.074Z,13.47
2018-06-24T03:12:43.734Z,13.70
2018-06-24T03:15:13.361Z,14.40
2018-06-24T03:17:43.044Z,14.20
2018-06-24T03:20:12.769Z,14.33
2018-06-24T03:22:42.721Z,13.47
2018-06-24T03:25:12.084Z,14.17
2018-06-24T03:27:41.412Z,13.70
2018-06-24T03:30:11.186Z,14.97
2018-06-24T03:32:40.814Z,13.40
2018-06-24T03:35:10.508Z,14.47
2018-06-24T03:37:40.187Z,14.40
2018-06-24T03:40:09.866Z,14.30
2018-06-24T03:42:39.496Z,14.67
2018-06-24T03:45:09.162Z,14.57
2018-06-24T03:47:38.806Z,14.60
2018-06-24T03:50:08.549Z,13.10
2018-06-24T03:52:37.915Z,14.70
2018-06-24T03:55:07.664Z,13.60
2018-06-24T03:57:37.407Z,13.87
2018-06-24T04:00:07.862Z,14.27
2018-06-24T04:02:37.756Z,16.10
2018-06-24T04:05:07.481Z,14.10
2018-06-24T04:07:37.182Z,14.70
2018-06-24T04:10:06.942Z,15.80
2018-06-24T04:12:36.721Z,17.83
2018-06-24T04:15:06.670Z,19.70
2018-06-24T04:17:36.405Z,17.97
2018-06-24T04:20:06.111Z,19.07
2018-06-24T04:22:35.814Z,17.83
2018-06-24T04:25:05.584Z,18.97
2018-06-24T04:27:35.317Z,17.60
2018-06-24T04:30:06.281Z,17.43
2018-06-24T04:32:35.973Z,18.40
2018-06-24T04:35:05.824Z,20.27
2018-06-24T04:37:35.452Z,20.27
2018-06-24T04:40:05.368Z,18.23
2018-06-24T04:42:35.071Z,21.10
2018-06-24T04:45:05.065Z,20.07
2018-06-24T04:47:34.836Z,19.10
2018-06-24T04:50:04.668Z,19.03
2018-06-24T04:52:34.480Z,20.20
2018-06-24T04:55:04.159Z,19.70
2018-06-24T04:57:33.937Z,19.20
2018-06-24T05:00:03.736Z,17.77
2018-06-24T05:02:33.404Z,21.07
2018-06-24T05:05:03.091Z,19.80
2018-06-24T05:07:32.730Z,19.53
2018-06-24T05:10:02.351Z,17.47
2018-06-24T05:12:31.688Z,19.00
2018-06-24T05:15:01.397Z,18.07
2018-06-24T05:17:31.101Z,17.63
2018-06-24T05:20:00.732Z,17.40
2018-06-24T05:22:30.403Z,17.80
2018-06-24T05:24:59.792Z,15.80
2018-06-24T05:27:29.532Z,16.50
2018-06-24T05:29:59.166Z,14.83
2018-06-24T05:32:28.976Z,14.80
2018-06-24T05:34:58.772Z,14.77
2018-06-24T05:37:28.414Z,15.13
2018-06-24T05:39:58.045Z,15.50
2018-06-24T05:42:27.726Z,15.27
2018-06-24T05:44:57.393Z,16.00
2018-06-24T05:47:27.057Z,15.27
2018-06-24T05:49:56.762Z,14.70
2018-06-24T05:52:26.394Z,14.23
2018-06-24T05:54:56.093Z,13.30
2018-06-24T05:57:25.879Z,13.87
2018-06-24T05:59:55.313Z,13.27
2018-06-24T06:02:25.085Z,15.10
2018-06-24T06:04:54.778Z,14.70
2018-06-24T06:07:24.493Z,14.53
2018-06-24T06:09:54.124Z,14.20
2018-06-24T06:12:23.921Z,13.77
2018-06-24T06:14:53.794Z,13.30
2018-06-24T06:17:23.505Z,13.50
2018-06-24T06:19:53.157Z,13.13
2018-06-24T06:22:22.956Z,14.10
2018-06-24T06:24:52.601Z,14.77
2018-06-24T06:27:22.384Z,14.10
2018-06-24T06:29:52.049Z,13.20
2018-06-24T06:32:21.871Z,14.57
2018-06-24T06:34:51.216Z,14.33
2018-06-24T06:37:20.900Z,13.90
2018-06-24T06:39:50.825Z,14.30
2018-06-24T06:42:20.500Z,15.90
2018-06-24T06:44:50.138Z,15.40
2018-06-24T06:47:19.842Z,14.37
2018-06-24T06:49:49.274Z,14.47
2018-06-24T06:52:18.948Z,13.90
2018-06-24T06:54:48.673Z,12.07
2018-06-24T06:57:18.008Z,12.90
2018-06-24T06:59:47.892Z,13.10
2018-06-24T07:02:17.273Z,11.70
2018-06-24T07:04:47.010Z,9.00
2018-06-24T07:07:16.300Z,8.13
2018-06-24T07:09:45.945Z,7.50
2018-06-24T07:12:15.765Z,8.73
2018-06-24T07:14:45.389Z,7.43
2018-06-24T07:17:15.163Z,6.70
2018-06-24T07:19:45.095Z,6.47
2018-06-24T07:22:14.827Z,6.73
2018-06-24T07:24:44.485Z,6.07
2018-06-24T07:27:14.125Z,7.77
2018-06-24T07:29:43.480Z,7.43
2018-06-24T07:32:13.955Z,6.20
2018-06-24T07:34:43.613Z,6.07
2018-06-24T07:37:13.350Z,5.70
2018-06-24T07:39:43.029Z,6.90
2018-06-24T07:42:12.724Z,5.90
2018-06-24T07:44:42.462Z,5.97
2018-06-24T07:47:12.242Z,6.37
2018-06-24T07:49:41.927Z,6.77
2018-06-24T07:52:11.597Z,6.57
2018-06-24T07:54:41.249Z,6.03
2018-06-24T07:57:11.000Z,6.93
2018-06-24T07:59:40.692Z,6.50
2018-06-24T08:02:10.369Z,6.90
2018-06-24T08:04:40.030Z,5.20
2018-06-24T08:07:09.393Z,7.07
2018-06-24T08:09:39.182Z,6.07
2018-06-24T08:12:09.098Z,6.97
2018-06-24T08:14:38.738Z,5.47
2018-06-24T08:17:08.388Z,5.60
2018-06-24T08:19:37.710Z,6.53
2018-06-24T08:22:07.139Z,6.13
2018-06-24T08:24:36.907Z,6.50
2018-06-24T08:27:06.734Z,5.37
2018-06-24T08:29:36.496Z,6.40
2018-06-24T08:32:06.259Z,5.73
2018-06-24T08:34:36.240Z,6.77
2018-06-24T08:37:05.933Z,6.47
2018-06-24T08:39:35.602Z,7.67
2018-06-24T08:42:05.520Z,6.60
2018-06-24T08:44:35.241Z,6.87
2018-06-24T08:47:04.573Z,7.90
2018-06-24T08:49:34.327Z,8.13
2018-06-24T08:52:04.022Z,7.83
2018-06-24T08:54:33.737Z,8.10
2018-06-24T08:57:03.589Z,8.97
2018-06-24T08:59:33.248Z,9.90
2018-06-24T09:02:02.928Z,9.20
2018-06-24T09:04:32.330Z,9.93
2018-06-24T09:07:02.136Z,9.40
2018-06-24T09:09:31.861Z,9.63
2018-06-24T09:12:01.527Z,10.20
2018-06-24T09:14:31.268Z,10.10
2018-06-24T09:17:00.924Z,10.20
2018-06-24T09:19:30.787Z,10.80
2018-06-24T09:22:00.533Z,11.50
2018-06-24T09:24:30.265Z,12.63
2018-06-24T09:27:00.046Z,10.47
2018-06-24T09:29:29.741Z,9.90
2018-06-24T09:31:59.565Z,11.70
2018-06-24T09:34:29.250Z,12.47
2018-06-24T09:36:59.000Z,10.33
2018-06-24T09:39:28.673Z,10.70
2018-06-24T09:41:58.522Z,10.67
2018-06-24T09:44:28.217Z,10.00
2018-06-24T09:46:57.924Z,10.50
2018-06-24T09:49:27.693Z,10.57
2018-06-24T09:51:57.328Z,8.80
2018-06-24T09:54:27.038Z,10.07
2018-06-24T09:56:59.861Z,9.40
2018-06-24T09:59:29.194Z,9.80
2018-06-24T10:01:58.887Z,8.50
2018-06-24T10:04:28.685Z,7.60
2018-06-24T10:06:58.481Z,8.20
2018-06-24T10:09:28.641Z,7.27
2018-06-24T10:11:58.331Z,7.03
2018-06-24T10:14:28.086Z,7.00
2018-06-24T10:16:57.460Z,6.33
2018-06-24T10:19:27.325Z,6.50
2018-06-24T10:21:57.016Z,6.37
2018-06-24T10:24:26.839Z,6.30
2018-06-24T10:26:56.566Z,6.30
2018-06-24T10:29:26.348Z,7.67
2018-06-24T10:31:56.177Z,6.33
2018-06-24T10:34:25.819Z,5.37
2018-06-24T10:36:55.569Z,5.53
2018-06-24T10:39:25.219Z,4.93
2018-06-24T10:41:54.904Z,5.13
2018-06-24T10:44:24.573Z,5.23
2018-06-24T10:46:54.129Z,4.60
2018-06-24T10:49:23.774Z,4.10
2018-06-24T10:51:53.442Z,3.93
2018-06-24T10:54:23.090Z,4.97
2018-06-24T10:56:52.726Z,4.60
2018-06-24T10:59:22.392Z,4.70
2018-06-24T11:01:52.128Z,3.87
2018-06-24T11:04:21.820Z,4.90
2018-06-24T11:06:51.609Z,4.10
2018-06-24T11:09:21.366Z,4.80
2018-06-24T11:11:50.961Z,5.30
2018-06-24T11:14:20.645Z,4.60
2018-06-24T11:16:50.338Z,4.03
2018-06-24T11:19:20.005Z,4.13
2018-06-24T11:21:49.623Z,4.37
2018-06-24T11:24:19.279Z,3.40
2018-06-24T11:26:49.010Z,3.63
2018-06-24T11:29:18.669Z,3.27
2018-06-24T11:31:48.383Z,3.13
2018-06-24T11:34:18.186Z,2.73
2018-06-24T11:36:48.066Z,2.57
2018-06-24T11:39:17.810Z,3.30
2018-06-24T11:41:47.488Z,3.00
2018-06-24T11:44:17.362Z,2.60
2018-06-24T11:46:47.010Z,3.03
2018-06-24T11:49:16.688Z,2.63
2018-06-24T11:51:46.398Z,2.60
2018-06-24T11:54:16.325Z,2.40
2018-06-24T11:56:46.025Z,1.83
2018-06-24T11:59:15.705Z,2.63
2018-06-24T12:01:45.397Z,2.30
2018-06-24T12:04:15.283Z,2.40
2018-06-24T12:06:44.907Z,2.43
2018-06-24T12:09:14.489Z,1.87
2018-06-24T12:11:44.218Z,2.13
2018-06-24T12:14:13.931Z,1.93
2018-06-24T12:16:43.609Z,2.87
2018-06-24T12:19:13.350Z,2.20
2018-06-24T12:21:43.030Z,1.67
2018-06-24T12:24:12.837Z,2.00
2018-06-24T12:26:42.544Z,1.90
2018-06-24T12:29:12.495Z,2.90
2018-06-24T12:31:42.190Z,2.10
2018-06-24T12:34:11.899Z,3.03
2018-06-24T12:36:42.861Z,2.30
2018-06-24T12:39:14.576Z,1.90
2018-06-24T12:41:44.268Z,2.00
2018-06-24T12:44:14.032Z,2.43
2018-06-24T12:46:46.577Z,2.70
2018-06-24T12:49:16.284Z,2.47
2018-06-24T12:51:45.924Z,2.20
2018-06-24T12:54:15.574Z,2.37
2018-06-24T12:56:45.353Z,3.10
2018-06-24T12:59:15.296Z,2.03
2018-06-24T13:01:44.883Z,2.20
2018-06-24T13:04:14.685Z,2.13
2018-06-24T13:06:44.373Z,2.30
2018-06-24T13:09:14.145Z,2.50
2018-06-24T13:11:43.867Z,2.53
2018-06-24T13:14:13.768Z,2.30
2018-06-24T13:16:43.462Z,2.33
2018-06-24T13:19:13.234Z,2.13
2018-06-24T13:21:42.621Z,2.30
2018-06-24T13:24:12.349Z,2.23
2018-06-24T13:26:42.085Z,2.70
2018-06-24T13:29:11.825Z,2.40
2018-06-24T13:31:41.504Z,2.83
2018-06-24T13:34:11.229Z,2.77
2018-06-24T13:36:40.715Z,2.90
2018-06-24T13:39:11.585Z,2.67
2018-06-24T13:41:41.368Z,1.93
2018-06-24T13:44:11.149Z,2.50
2018-06-24T13:46:40.855Z,2.37
2018-06-24T13:49:10.560Z,2.17
2018-06-24T13:51:40.425Z,2.30
2018-06-24T13:54:10.083Z,1.97
2018-06-24T13:56:39.790Z,2.33
2018-06-24T13:59:09.527Z,2.90
2018-06-24T14:01:39.204Z,2.70
2018-06-24T14:04:09.272Z,2.47
2018-06-24T14:06:38.931Z,2.63
2018-06-24T14:09:11.661Z,2.40
2018-06-24T14:11:41.461Z,2.40
2018-06-24T14:14:11.327Z,2.93
2018-06-24T14:16:41.241Z,3.00
2018-06-24T14:19:11.093Z,2.50
2018-06-24T14:21:40.853Z,2.40
2018-06-24T14:24:10.509Z,2.70
2018-06-24T14:26:40.236Z,2.60
2018-06-24T14:29:09.923Z,2.90
2018-06-24T14:31:39.287Z,2.80
2018-06-24T14:34:09.102Z,3.00
2018-06-24T14:36:38.845Z,2.60
2018-06-24T14:39:10.550Z,2.97
2018-06-24T14:41:40.596Z,2.60
2018-06-24T14:44:10.448Z,3.10
2018-06-24T14:46:39.701Z,3.90
2018-06-24T14:49:09.384Z,3.27
2018-06-24T14:51:39.118Z,2.73
2018-06-24T14:54:08.853Z,3.20
2018-06-24T14:56:38.635Z,2.70
2018-06-24T14:59:08.413Z,2.63
2018-06-24T15:01:38.124Z,2.43
2018-06-24T15:04:07.906Z,2.80
2018-06-24T15:06:37.579Z,3.23
2018-06-24T15:09:10.926Z,3.33
2018-06-24T15:11:40.951Z,3.63
2018-06-24T15:14:10.666Z,3.20
2018-06-24T15:16:40.510Z,2.70
2018-06-24T15:19:10.155Z,2.80
2018-06-24T15:21:39.858Z,3.13
2018-06-24T15:24:09.585Z,2.90
2018-06-24T15:26:39.234Z,2.73
2018-06-24T15:29:09.051Z,2.43
2018-06-24T15:31:38.770Z,3.30
2018-06-24T15:34:08.515Z,3.10
2018-06-24T15:36:37.984Z,3.00
2018-06-24T15:39:11.116Z,2.70
2018-06-24T15:41:41.311Z,2.53
2018-06-24T15:44:11.003Z,3.20
2018-06-24T15:46:40.798Z,2.87
2018-06-24T15:49:10.521Z,2.40
2018-06-24T15:51:40.214Z,3.10
2018-06-24T15:54:09.928Z,2.70
2018-06-24T15:56:39.669Z,3.07
2018-06-24T15:59:09.424Z,2.67
2018-06-24T16:01:39.126Z,3.07
2018-06-24T16:04:08.819Z,2.90
2018-06-24T16:06:38.578Z,2.90
2018-06-24T16:09:11.644Z,2.50
2018-06-24T16:11:41.407Z,2.77
2018-06-24T16:14:11.189Z,3.30
2018-06-24T16:16:40.931Z,3.10
2018-06-24T16:19:10.626Z,2.57
2018-06-24T16:21:40.354Z,3.00
2018-06-24T16:24:10.202Z,4.03
2018-06-24T16:26:39.968Z,3.03
2018-06-24T16:29:09.780Z,3.10
2018-06-24T16:31:39.115Z,4.10
2018-06-24T16:34:08.825Z,3.17
2018-06-24T16:36:38.597Z,3.50
2018-06-24T16:39:11.564Z,3.10
2018-06-24T16:41:41.439Z,2.83
2018-06-24T16:44:11.643Z,2.97
2018-06-24T16:46:41.012Z,3.20
2018-06-24T16:49:10.771Z,2.70
2018-06-24T16:51:40.172Z,2.33
2018-06-24T16:54:09.947Z,3.40
2018-06-24T16:56:39.680Z,3.30
2018-06-24T16:59:09.389Z,3.10
2018-06-24T17:01:39.180Z,3.00
2018-06-24T17:04:09.076Z,3.37
2018-06-24T17:06:38.745Z,4.03
2018-06-24T17:09:09.560Z,2.40
2018-06-24T17:11:39.389Z,2.77
2018-06-24T17:14:09.165Z,2.53
2018-06-24T17:16:38.952Z,2.40
2018-06-24T17:19:08.794Z,2.63
2018-06-24T17:21:38.565Z,3.33
2018-06-24T17:24:08.490Z,2.97
2018-06-24T17:26:37.854Z,3.70
2018-06-24T17:29:07.600Z,3.63
2018-06-24T17:31:36.938Z,4.27
2018-06-24T17:34:06.814Z,3.37
2018-06-24T17:36:36.529Z,3.70
2018-06-24T17:39:11.133Z,3.90
2018-06-24T17:41:41.245Z,3.87
2018-06-24T17:44:11.194Z,3.87
2018-06-24T17:46:40.971Z,3.60
2018-06-24T17:49:10.743Z,4.50
2018-06-24T17:51:40.157Z,4.00
2018-06-24T17:54:09.876Z,4.00
2018-06-24T17:56:39.744Z,4.17
2018-06-24T17:59:09.658Z,4.50
2018-06-24T18:01:39.334Z,3.20
2018-06-24T18:04:09.022Z,3.80
2018-06-24T18:06:39.002Z,3.90
2018-06-24T18:09:11.229Z,3.60
2018-06-24T18:11:41.285Z,6.27
2018-06-24T18:14:11.019Z,7.03
2018-06-24T18:16:40.793Z,4.60
2018-06-24T18:19:10.434Z,3.47
2018-06-24T18:21:39.900Z,3.73
2018-06-24T18:24:09.598Z,4.47
2018-06-24T18:26:39.602Z,3.53
2018-06-24T18:29:09.357Z,4.20
2018-06-24T18:31:39.165Z,3.90
2018-06-24T18:34:08.897Z,4.60
2018-06-24T18:36:38.633Z,5.03
2018-06-24T18:39:09.983Z,3.87
2018-06-24T18:41:40.678Z,4.10
2018-06-24T18:44:10.378Z,4.10
2018-06-24T18:46:40.173Z,4.63
2018-06-24T18:49:10.034Z,5.23
2018-06-24T18:51:39.775Z,5.03
2018-06-24T18:54:09.507Z,4.83
2018-06-24T18:56:39.169Z,5.10
2018-06-24T18:59:08.992Z,4.67
2018-06-24T19:01:38.819Z,5.47
2018-06-24T19:04:08.537Z,4.70
2018-06-24T19:06:38.256Z,4.50
2018-06-24T19:09:11.736Z,3.90
2018-06-24T19:11:41.572Z,3.30
2018-06-24T19:14:11.307Z,3.93
2018-06-24T19:16:41.847Z,4.07
2018-06-24T19:19:11.627Z,3.23
2018-06-24T19:21:41.412Z,6.53
2018-06-24T19:24:11.210Z,4.00
2018-06-24T19:26:40.900Z,4.10
2018-06-24T19:29:10.609Z,4.33
2018-06-24T19:31:40.368Z,5.60
2018-06-24T19:34:10.241Z,4.17
2018-06-24T19:36:39.885Z,4.30
2018-06-24T19:39:11.763Z,4.27
2018-06-24T19:41:42.046Z,5.00
2018-06-24T19:44:12.145Z,4.37
2018-06-24T19:46:41.911Z,4.20
2018-06-24T19:49:11.761Z,5.33
2018-06-24T19:51:41.526Z,4.13
2018-06-24T19:54:11.288Z,3.13
2018-06-24T19:56:41.167Z,3.70
2018-06-24T19:59:10.783Z,3.57
2018-06-24T20:01:40.327Z,3.63
2018-06-24T20:04:10.403Z,3.30
2018-06-24T20:06:40.223Z,3.53
2018-06-24T20:09:10.727Z,3.40
2018-06-24T20:11:40.686Z,4.10
2018-06-24T20:14:10.509Z,3.70
2018-06-24T20:16:40.320Z,3.73
2018-06-24T20:19:10.284Z,4.07
2018-06-24T20:21:40.060Z,4.53
2018-06-24T20:24:09.739Z,3.67
2018-06-24T20:26:39.537Z,3.43
2018-06-24T20:29:09.418Z,4.50
2018-06-24T20:31:39.129Z,3.73
2018-06-24T20:34:08.850Z,3.80
2018-06-24T20:36:38.567Z,4.10
2018-06-24T20:39:09.789Z,3.80
2018-06-24T20:41:39.606Z,4.10
2018-06-24T20:44:09.365Z,4.90
2018-06-24T20:46:39.124Z,3.47
2018-06-24T20:49:08.526Z,3.60
2018-06-24T20:51:38.317Z,3.53
2018-06-24T20:54:08.167Z,4.83
2018-06-24T20:56:37.977Z,4.90
2018-06-24T20:59:07.344Z,4.50
2018-06-24T21:01:37.180Z,4.70
2018-06-24T21:04:07.250Z,4.73
2018-06-24T21:06:36.888Z,5.20
2018-06-24T21:09:10.336Z,6.37
2018-06-24T21:11:39.757Z,6.17
2018-06-24T21:14:09.512Z,7.13
2018-06-24T21:16:39.307Z,8.53
2018-06-24T21:19:08.935Z,8.97
2018-06-24T21:21:38.625Z,9.80
2018-06-24T21:24:08.633Z,8.70
2018-06-24T21:26:38.378Z,9.57
2018-06-24T21:29:08.071Z,9.37
2018-06-24T21:31:38.820Z,8.67
2018-06-24T21:34:08.481Z,8.00
2018-06-24T21:36:37.812Z,7.40
2018-06-24T21:39:09.880Z,9.00
2018-06-24T21:41:39.585Z,7.80
2018-06-24T21:44:09.468Z,8.70
2018-06-24T21:46:39.233Z,6.47
2018-06-24T21:49:09.105Z,6.13
2018-06-24T21:51:38.779Z,5.77
2018-06-24T21:54:08.505Z,5.23
2018-06-24T21:56:38.322Z,4.77
2018-06-24T21:59:08.102Z,5.20
2018-06-24T22:01:37.774Z,4.90
2018-06-24T22:04:07.677Z,5.20
2018-06-24T22:06:37.461Z,5.07
2018-06-24T22:09:10.826Z,5.00
2018-06-24T22:11:40.590Z,5.00
2018-06-24T22:14:11.069Z,5.00
2018-06-24T22:16:41.023Z,4.80
2018-06-24T22:19:10.817Z,5.63
2018-06-24T22:21:40.539Z,5.30
2018-06-24T22:24:10.243Z,6.27
2018-06-24T22:26:39.981Z,5.23
2018-06-24T22:29:09.725Z,5.40
2018-06-24T22:31:39.508Z,5.50
2018-06-24T22:34:09.539Z,5.17
2018-06-24T22:36:39.190Z,5.20
2018-06-24T22:39:11.301Z,4.50
2018-06-24T22:41:40.998Z,5.00
2018-06-24T22:44:10.673Z,4.33
2018-06-24T22:46:40.496Z,4.80
2018-06-24T22:49:10.353Z,4.70
2018-06-24T22:51:40.161Z,4.67
2018-06-24T22:54:09.848Z,6.13
2018-06-24T22:56:39.208Z,4.80
2018-06-24T22:59:25.693Z,5.30
2018-06-24T23:01:55.408Z,6.10
2018-06-24T23:04:25.087Z,5.60
2018-06-24T23:06:54.876Z,5.57
2018-06-24T23:09:24.732Z,5.03
2018-06-24T23:11:54.492Z,5.53
2018-06-24T23:14:24.276Z,4.63
2018-06-24T23:16:54.029Z,5.40
2018-06-24T23:19:23.682Z,5.50
2018-06-24T23:21:53.321Z,5.10
2018-06-24T23:24:22.992Z,6.10
2018-06-24T23:26:52.710Z,5.60
2018-06-24T23:29:22.311Z,7.73
2018-06-24T23:31:51.961Z,9.37
2018-06-24T23:34:21.694Z,6.80
2018-06-24T23:36:51.336Z,9.20
2018-06-24T23:39:21.189Z,10.00
2018-06-24T23:41:50.902Z,10.60
2018-06-24T23:44:20.549Z,11.83
2018-06-24T23:46:50.720Z,12.37
2018-06-24T23:49:20.483Z,12.20
2018-06-24T23:51:50.272Z,9.53
2018-06-24T23:54:19.989Z,10.63
2018-06-24T23:56:49.900Z,8.70
2018-06-24T23:59:19.640Z,9.03
